sensor_id;sensor_type;location;lat;lon;timestamp;temperature;humidity
22532;DHT22;11432;46.924;7.114;2023-01-16T00:00:40;3.10;1.00
22532;DHT22;11432;46.924;7.114;2023-01-16T00:03:05;3.10;1.00
22532;DHT22;11432;46.924;7.114;2023-01-16T00:05:31;3.10;1.00
22532;DHT22;11432;46.924;7.114;2023-01-16T00:07:56;3.00;3.50
22532;DHT22;11432;46.924;7.114;2023-01-16T00:10:22;2.90;17.80
22532;DHT22;11432;46.924;7.114;2023-01-16T00:12:48;2.80;42.40
22532;DHT22;11432;46.924;7.114;2023-01-16T00:15:14;2.80;43.80
22532;DHT22;11432;46.924;7.114;2023-01-16T00:17:40;2.80;52.30
22532;DHT22;11432;46.924;7.114;2023-01-16T00:20:06;2.70;81.90
22532;DHT22;11432;46.924;7.114;2023-01-16T00:22:31;2.80;77.20
22532;DHT22;11432;46.924;7.114;2023-01-16T00:24:57;2.70;67.10
22532;DHT22;11432;46.924;7.114;2023-01-16T00:27:23;2.70;74.60
22532;DHT22;11432;46.924;7.114;2023-01-16T00:29:48;2.70;88.10
22532;DHT22;11432;46.924;7.114;2023-01-16T00:32:14;2.70;97.80
22532;DHT22;11432;46.924;7.114;2023-01-16T00:34:40;2.80;94.30
22532;DHT22;11432;46.924;7.114;2023-01-16T00:37:06;2.80;81.90
22532;DHT22;11432;46.924;7.114;2023-01-16T00:39:32;2.90;46.80
22532;DHT22;11432;46.924;7.114;2023-01-16T00:41:58;2.90;23.60
22532;DHT22;11432;46.924;7.114;2023-01-16T00:44:23;3.00;10.60
22532;DHT22;11432;46.924;7.114;2023-01-16T00:46:49;3.00;1.00
22532;DHT22;11432;46.924;7.114;2023-01-16T00:49:15;3.10;1.00
22532;DHT22;11432;46.924;7.114;2023-01-16T00:51:40;3.10;1.00
22532;DHT22;11432;46.924;7.114;2023-01-16T00:54:06;3.10;1.00
22532;DHT22;11432;46.924;7.114;2023-01-16T00:56:31;3.10;1.00
22532;DHT22;11432;46.924;7.114;2023-01-16T00:58:57;3.00;1.00
22532;DHT22;11432;46.924;7.114;2023-01-16T01:01:23;3.00;1.00
22532;DHT22;11432;46.924;7.114;2023-01-16T01:03:48;3.00;1.00
22532;DHT22;11432;46.924;7.114;2023-01-16T01:06:14;2.90;1.00
22532;DHT22;11432;46.924;7.114;2023-01-16T01:08:40;2.90;1.00
22532;DHT22;11432;46.924;7.114;2023-01-16T01:11:07;2.80;6.20
22532;DHT22;11432;46.924;7.114;2023-01-16T01:13:34;2.80;18.10
22532;DHT22;11432;46.924;7.114;2023-01-16T01:16:00;2.80;34.20
22532;DHT22;11432;46.924;7.114;2023-01-16T01:18:25;2.70;65.30
22532;DHT22;11432;46.924;7.114;2023-01-16T01:20:51;2.70;48.60
22532;DHT22;11432;46.924;7.114;2023-01-16T01:23:16;2.70;74.40
22532;DHT22;11432;46.924;7.114;2023-01-16T01:25:42;2.70;92.00
22532;DHT22;11432;46.924;7.114;2023-01-16T01:28:07;2.70;83.40
22532;DHT22;11432;46.924;7.114;2023-01-16T01:30:33;2.60;85.20
22532;DHT22;11432;46.924;7.114;2023-01-16T01:32:59;2.60;97.10
22532;DHT22;11432;46.924;7.114;2023-01-16T01:35:24;2.60;99.90
22532;DHT22;11432;46.924;7.114;2023-01-16T01:37:50;2.70;90.20
22532;DHT22;11432;46.924;7.114;2023-01-16T01:40:16;2.60;90.10
22532;DHT22;11432;46.924;7.114;2023-01-16T01:42:41;2.70;43.00
22532;DHT22;11432;46.924;7.114;2023-01-16T01:45:23;2.70;32.20
22532;DHT22;11432;46.924;7.114;2023-01-16T01:48:23;2.70;44.10
22532;DHT22;11432;46.924;7.114;2023-01-16T01:50:55;2.60;42.00
22532;DHT22;11432;46.924;7.114;2023-01-16T01:53:30;2.60;63.10
22532;DHT22;11432;46.924;7.114;2023-01-16T01:55:59;2.50;92.00
22532;DHT22;11432;46.924;7.114;2023-01-16T01:58:26;2.40;99.90
22532;DHT22;11432;46.924;7.114;2023-01-16T02:00:56;2.40;99.90
22532;DHT22;11432;46.924;7.114;2023-01-16T02:03:29;2.30;99.90
22532;DHT22;11432;46.924;7.114;2023-01-16T02:05:57;2.20;99.90
22532;DHT22;11432;46.924;7.114;2023-01-16T02:08:27;2.10;99.90
22532;DHT22;11432;46.924;7.114;2023-01-16T02:10:56;2.00;99.90
22532;DHT22;11432;46.924;7.114;2023-01-16T02:13:23;2.00;99.90
22532;DHT22;11432;46.924;7.114;2023-01-16T02:15:49;2.00;99.90
22532;DHT22;11432;46.924;7.114;2023-01-16T02:18:33;2.00;99.90
22532;DHT22;11432;46.924;7.114;2023-01-16T02:21:50;2.00;99.90
22532;DHT22;11432;46.924;7.114;2023-01-16T02:24:45;2.00;99.90
22532;DHT22;11432;46.924;7.114;2023-01-16T02:37:49;2.10;99.90
22532;DHT22;11432;46.924;7.114;2023-01-16T02:40:53;2.10;99.90
22532;DHT22;11432;46.924;7.114;2023-01-16T02:43:32;2.20;99.90
22532;DHT22;11432;46.924;7.114;2023-01-16T02:46:44;2.20;99.90
22532;DHT22;11432;46.924;7.114;2023-01-16T02:49:18;2.30;99.90
22532;DHT22;11432;46.924;7.114;2023-01-16T02:52:19;2.30;99.90
22532;DHT22;11432;46.924;7.114;2023-01-16T02:54:57;2.40;99.90
22532;DHT22;11432;46.924;7.114;2023-01-16T02:57:29;2.40;99.90
22532;DHT22;11432;46.924;7.114;2023-01-16T02:59:55;2.40;99.90
22532;DHT22;11432;46.924;7.114;2023-01-16T03:02:21;2.40;99.90
22532;DHT22;11432;46.924;7.114;2023-01-16T03:04:51;2.40;99.90
22532;DHT22;11432;46.924;7.114;2023-01-16T03:07:44;2.40;99.90
22532;DHT22;11432;46.924;7.114;2023-01-16T03:13:17;2.30;99.90
22532;DHT22;11432;46.924;7.114;2023-01-16T03:16:07;2.20;99.90
22532;DHT22;11432;46.924;7.114;2023-01-16T03:24:26;2.00;99.90
22532;DHT22;11432;46.924;7.114;2023-01-16T03:29:54;1.90;99.90
22532;DHT22;11432;46.924;7.114;2023-01-16T03:32:32;1.80;99.90
22532;DHT22;11432;46.924;7.114;2023-01-16T03:39:58;1.70;99.90
22532;DHT22;11432;46.924;7.114;2023-01-16T03:42:37;1.60;99.90
22532;DHT22;11432;46.924;7.114;2023-01-16T03:45:19;1.60;99.90
22532;DHT22;11432;46.924;7.114;2023-01-16T03:47:50;1.50;99.90
22532;DHT22;11432;46.924;7.114;2023-01-16T03:50:21;1.40;99.90
22532;DHT22;11432;46.924;7.114;2023-01-16T03:52:48;1.40;99.90
22532;DHT22;11432;46.924;7.114;2023-01-16T03:55:24;1.30;99.90
22532;DHT22;11432;46.924;7.114;2023-01-16T03:58:38;1.30;99.90
22532;DHT22;11432;46.924;7.114;2023-01-16T04:03:36;1.20;99.90
22532;DHT22;11432;46.924;7.114;2023-01-16T04:08:58;1.20;99.90
22532;DHT22;11432;46.924;7.114;2023-01-16T04:11:26;1.20;99.90
22532;DHT22;11432;46.924;7.114;2023-01-16T04:13:54;1.20;99.90
22532;DHT22;11432;46.924;7.114;2023-01-16T04:16:21;1.20;99.90
22532;DHT22;11432;46.924;7.114;2023-01-16T04:18:49;1.20;99.90
22532;DHT22;11432;46.924;7.114;2023-01-16T04:21:18;1.20;99.90
22532;DHT22;11432;46.924;7.114;2023-01-16T04:23:44;1.10;99.90
22532;DHT22;11432;46.924;7.114;2023-01-16T04:26:09;1.10;99.90
22532;DHT22;11432;46.924;7.114;2023-01-16T04:28:35;1.10;99.90
22532;DHT22;11432;46.924;7.114;2023-01-16T04:31:00;1.00;99.90
22532;DHT22;11432;46.924;7.114;2023-01-16T04:33:26;1.00;99.90
22532;DHT22;11432;46.924;7.114;2023-01-16T04:35:52;1.00;99.90
22532;DHT22;11432;46.924;7.114;2023-01-16T04:38:17;1.00;99.90
22532;DHT22;11432;46.924;7.114;2023-01-16T04:40:43;0.90;99.90
22532;DHT22;11432;46.924;7.114;2023-01-16T04:43:08;0.90;99.90
22532;DHT22;11432;46.924;7.114;2023-01-16T04:45:34;1.00;99.90
22532;DHT22;11432;46.924;7.114;2023-01-16T04:48:00;1.10;99.90
22532;DHT22;11432;46.924;7.114;2023-01-16T04:50:25;1.10;99.90
22532;DHT22;11432;46.924;7.114;2023-01-16T04:52:51;1.10;99.90
22532;DHT22;11432;46.924;7.114;2023-01-16T04:55:16;1.10;99.90
22532;DHT22;11432;46.924;7.114;2023-01-16T04:57:42;1.10;99.90
22532;DHT22;11432;46.924;7.114;2023-01-16T05:00:10;1.10;99.90
22532;DHT22;11432;46.924;7.114;2023-01-16T05:02:36;1.10;99.90
22532;DHT22;11432;46.924;7.114;2023-01-16T05:05:01;1.20;99.90
22532;DHT22;11432;46.924;7.114;2023-01-16T05:07:27;1.20;99.90
22532;DHT22;11432;46.924;7.114;2023-01-16T05:09:53;1.30;99.90
22532;DHT22;11432;46.924;7.114;2023-01-16T05:12:19;1.40;99.90
22532;DHT22;11432;46.924;7.114;2023-01-16T05:14:45;1.30;99.90
22532;DHT22;11432;46.924;7.114;2023-01-16T05:17:11;1.40;99.90
22532;DHT22;11432;46.924;7.114;2023-01-16T05:19:36;1.40;99.90
22532;DHT22;11432;46.924;7.114;2023-01-16T05:22:02;1.40;99.90
22532;DHT22;11432;46.924;7.114;2023-01-16T05:24:28;1.40;99.90
22532;DHT22;11432;46.924;7.114;2023-01-16T05:26:53;1.40;99.90
22532;DHT22;11432;46.924;7.114;2023-01-16T05:29:19;1.40;99.90
22532;DHT22;11432;46.924;7.114;2023-01-16T05:31:44;1.40;98.10
22532;DHT22;11432;46.924;7.114;2023-01-16T05:34:10;1.40;72.40
22532;DHT22;11432;46.924;7.114;2023-01-16T05:36:35;1.40;38.60
22532;DHT22;11432;46.924;7.114;2023-01-16T05:39:02;1.50;3.70
22532;DHT22;11432;46.924;7.114;2023-01-16T05:41:27;1.50;1.00
22532;DHT22;11432;46.924;7.114;2023-01-16T05:43:53;1.50;1.00
22532;DHT22;11432;46.924;7.114;2023-01-16T05:46:19;1.50;1.00
22532;DHT22;11432;46.924;7.114;2023-01-16T05:48:44;1.60;1.00
22532;DHT22;11432;46.924;7.114;2023-01-16T05:51:10;1.60;1.00
22532;DHT22;11432;46.924;7.114;2023-01-16T05:53:37;1.70;1.00
22532;DHT22;11432;46.924;7.114;2023-01-16T05:56:07;1.70;1.00
22532;DHT22;11432;46.924;7.114;2023-01-16T05:58:33;1.70;1.00
22532;DHT22;11432;46.924;7.114;2023-01-16T06:00:59;1.80;1.00
22532;DHT22;11432;46.924;7.114;2023-01-16T06:03:24;1.80;1.00
22532;DHT22;11432;46.924;7.114;2023-01-16T06:05:50;1.80;1.00
22532;DHT22;11432;46.924;7.114;2023-01-16T06:08:15;1.80;1.00
22532;DHT22;11432;46.924;7.114;2023-01-16T06:10:41;1.80;1.00
22532;DHT22;11432;46.924;7.114;2023-01-16T06:13:07;1.70;1.00
22532;DHT22;11432;46.924;7.114;2023-01-16T06:15:32;1.70;1.00
22532;DHT22;11432;46.924;7.114;2023-01-16T06:17:58;1.70;1.00
22532;DHT22;11432;46.924;7.114;2023-01-16T06:20:23;1.70;1.00
22532;DHT22;11432;46.924;7.114;2023-01-16T06:22:49;1.70;1.00
22532;DHT22;11432;46.924;7.114;2023-01-16T06:25:15;1.70;1.00
22532;DHT22;11432;46.924;7.114;2023-01-16T06:27:40;1.70;1.00
22532;DHT22;11432;46.924;7.114;2023-01-16T06:30:07;1.70;1.00
22532;DHT22;11432;46.924;7.114;2023-01-16T06:32:32;1.70;1.00
22532;DHT22;11432;46.924;7.114;2023-01-16T06:34:58;1.80;1.00
22532;DHT22;11432;46.924;7.114;2023-01-16T06:37:24;1.80;1.00
22532;DHT22;11432;46.924;7.114;2023-01-16T06:39:49;1.70;1.00
22532;DHT22;11432;46.924;7.114;2023-01-16T06:42:15;1.70;1.00
22532;DHT22;11432;46.924;7.114;2023-01-16T06:44:40;1.70;1.00
22532;DHT22;11432;46.924;7.114;2023-01-16T06:47:06;1.60;1.30
22532;DHT22;11432;46.924;7.114;2023-01-16T06:49:34;1.60;1.50
22532;DHT22;11432;46.924;7.114;2023-01-16T06:51:59;1.60;1.40
22532;DHT22;11432;46.924;7.114;2023-01-16T06:54:26;1.40;1.00
22532;DHT22;11432;46.924;7.114;2023-01-16T06:56:52;1.30;1.00
22532;DHT22;11432;46.924;7.114;2023-01-16T06:59:17;1.30;1.00
22532;DHT22;11432;46.924;7.114;2023-01-16T07:01:43;1.30;1.00
22532;DHT22;11432;46.924;7.114;2023-01-16T07:04:09;1.30;1.00
22532;DHT22;11432;46.924;7.114;2023-01-16T07:06:35;1.40;1.00
22532;DHT22;11432;46.924;7.114;2023-01-16T07:09:02;1.50;1.00
22532;DHT22;11432;46.924;7.114;2023-01-16T07:11:27;1.70;1.00
22532;DHT22;11432;46.924;7.114;2023-01-16T07:13:53;1.80;1.00
22532;DHT22;11432;46.924;7.114;2023-01-16T07:16:38;1.90;1.00
22532;DHT22;11432;46.924;7.114;2023-01-16T07:19:22;1.90;1.00
22532;DHT22;11432;46.924;7.114;2023-01-16T07:22:09;1.90;1.00
22532;DHT22;11432;46.924;7.114;2023-01-16T07:24:54;2.00;1.00
22532;DHT22;11432;46.924;7.114;2023-01-16T07:27:20;2.00;1.00
22532;DHT22;11432;46.924;7.114;2023-01-16T07:29:46;2.00;1.00
22532;DHT22;11432;46.924;7.114;2023-01-16T07:32:11;2.00;1.00
22532;DHT22;11432;46.924;7.114;2023-01-16T07:34:37;1.90;1.00
22532;DHT22;11432;46.924;7.114;2023-01-16T07:37:02;1.90;1.00
22532;DHT22;11432;46.924;7.114;2023-01-16T07:39:28;1.90;1.00
22532;DHT22;11432;46.924;7.114;2023-01-16T07:41:53;1.90;1.00
22532;DHT22;11432;46.924;7.114;2023-01-16T07:44:19;1.80;1.00
22532;DHT22;11432;46.924;7.114;2023-01-16T07:46:45;1.80;1.00
22532;DHT22;11432;46.924;7.114;2023-01-16T07:49:10;1.80;1.00
22532;DHT22;11432;46.924;7.114;2023-01-16T07:51:36;1.80;1.00
22532;DHT22;11432;46.924;7.114;2023-01-16T07:54:01;1.80;1.00
22532;DHT22;11432;46.924;7.114;2023-01-16T07:56:27;1.80;1.00
22532;DHT22;11432;46.924;7.114;2023-01-16T07:58:52;1.90;1.00
22532;DHT22;11432;46.924;7.114;2023-01-16T08:01:19;2.10;1.00
22532;DHT22;11432;46.924;7.114;2023-01-16T08:03:45;2.20;1.00
22532;DHT22;11432;46.924;7.114;2023-01-16T08:06:11;2.20;1.00
22532;DHT22;11432;46.924;7.114;2023-01-16T08:08:36;2.30;1.00
22532;DHT22;11432;46.924;7.114;2023-01-16T08:11:02;2.40;1.00
22532;DHT22;11432;46.924;7.114;2023-01-16T08:13:51;2.50;1.00
22532;DHT22;11432;46.924;7.114;2023-01-16T08:16:16;2.70;1.00
22532;DHT22;11432;46.924;7.114;2023-01-16T08:18:42;2.80;1.00
22532;DHT22;11432;46.924;7.114;2023-01-16T08:21:08;2.80;1.00
22532;DHT22;11432;46.924;7.114;2023-01-16T08:23:33;2.90;1.00
22532;DHT22;11432;46.924;7.114;2023-01-16T08:25:59;2.90;1.00
22532;DHT22;11432;46.924;7.114;2023-01-16T08:28:26;3.00;1.00
22532;DHT22;11432;46.924;7.114;2023-01-16T08:30:51;3.00;1.00
22532;DHT22;11432;46.924;7.114;2023-01-16T08:33:17;3.00;1.00
22532;DHT22;11432;46.924;7.114;2023-01-16T08:35:42;2.90;1.00
22532;DHT22;11432;46.924;7.114;2023-01-16T08:38:08;2.90;1.00
22532;DHT22;11432;46.924;7.114;2023-01-16T08:40:34;2.90;1.00
22532;DHT22;11432;46.924;7.114;2023-01-16T08:42:59;2.80;1.00
22532;DHT22;11432;46.924;7.114;2023-01-16T08:45:43;2.80;1.00
22532;DHT22;11432;46.924;7.114;2023-01-16T08:48:27;2.80;1.00
22532;DHT22;11432;46.924;7.114;2023-01-16T08:51:19;2.70;1.00
22532;DHT22;11432;46.924;7.114;2023-01-16T08:53:49;2.70;1.00
22532;DHT22;11432;46.924;7.114;2023-01-16T08:56:15;2.70;38.60
22532;DHT22;11432;46.924;7.114;2023-01-16T08:58:40;2.70;99.30
22532;DHT22;11432;46.924;7.114;2023-01-16T09:01:06;2.70;99.90
22532;DHT22;11432;46.924;7.114;2023-01-16T09:03:32;2.70;99.90
22532;DHT22;11432;46.924;7.114;2023-01-16T09:06:00;2.70;99.90
22532;DHT22;11432;46.924;7.114;2023-01-16T09:08:25;2.70;99.90
22532;DHT22;11432;46.924;7.114;2023-01-16T09:10:51;2.60;99.90
22532;DHT22;11432;46.924;7.114;2023-01-16T09:13:35;2.60;99.90
22532;DHT22;11432;46.924;7.114;2023-01-16T09:16:21;2.60;99.90
22532;DHT22;11432;46.924;7.114;2023-01-16T09:18:47;2.60;99.90
22532;DHT22;11432;46.924;7.114;2023-01-16T09:21:13;2.50;99.90
22532;DHT22;11432;46.924;7.114;2023-01-16T09:23:39;2.50;99.90
22532;DHT22;11432;46.924;7.114;2023-01-16T09:26:05;2.50;99.90
22532;DHT22;11432;46.924;7.114;2023-01-16T09:28:30;2.50;99.90
22532;DHT22;11432;46.924;7.114;2023-01-16T09:30:56;2.50;99.90
22532;DHT22;11432;46.924;7.114;2023-01-16T09:33:22;2.50;99.90
22532;DHT22;11432;46.924;7.114;2023-01-16T09:35:47;2.60;99.90
22532;DHT22;11432;46.924;7.114;2023-01-16T09:38:13;2.60;99.90
22532;DHT22;11432;46.924;7.114;2023-01-16T09:40:38;2.60;99.90
22532;DHT22;11432;46.924;7.114;2023-01-16T09:46:27;2.60;99.90
22532;DHT22;11432;46.924;7.114;2023-01-16T09:49:00;2.50;99.90
22532;DHT22;11432;46.924;7.114;2023-01-16T09:51:43;2.50;99.90
22532;DHT22;11432;46.924;7.114;2023-01-16T09:54:35;2.40;99.90
22532;DHT22;11432;46.924;7.114;2023-01-16T09:57:30;2.40;99.90
22532;DHT22;11432;46.924;7.114;2023-01-16T10:00:16;2.40;99.90
22532;DHT22;11432;46.924;7.114;2023-01-16T10:02:42;2.40;99.90
22532;DHT22;11432;46.924;7.114;2023-01-16T10:05:10;2.40;99.90
22532;DHT22;11432;46.924;7.114;2023-01-16T10:10:45;2.40;99.90
22532;DHT22;11432;46.924;7.114;2023-01-16T10:24:00;2.30;99.90
22532;DHT22;11432;46.924;7.114;2023-01-16T10:26:42;2.30;99.90
22532;DHT22;11432;46.924;7.114;2023-01-16T10:34:40;2.30;99.90
22532;DHT22;11432;46.924;7.114;2023-01-16T10:37:10;2.30;99.90
22532;DHT22;11432;46.924;7.114;2023-01-16T10:39:37;2.30;99.90
22532;DHT22;11432;46.924;7.114;2023-01-16T10:45:14;2.30;99.90
22532;DHT22;11432;46.924;7.114;2023-01-16T10:47:59;2.40;99.90
22532;DHT22;11432;46.924;7.114;2023-01-16T10:50:44;2.50;99.90
22532;DHT22;11432;46.924;7.114;2023-01-16T10:53:11;2.70;99.90
22532;DHT22;11432;46.924;7.114;2023-01-16T10:55:40;2.80;99.90
22532;DHT22;11432;46.924;7.114;2023-01-16T10:58:30;3.00;99.90
22532;DHT22;11432;46.924;7.114;2023-01-16T11:01:02;3.10;99.90
22532;DHT22;11432;46.924;7.114;2023-01-16T11:06:11;3.20;99.90
22532;DHT22;11432;46.924;7.114;2023-01-16T11:08:38;3.20;99.90
22532;DHT22;11432;46.924;7.114;2023-01-16T11:11:05;3.30;99.90
22532;DHT22;11432;46.924;7.114;2023-01-16T11:13:51;3.40;99.90
22532;DHT22;11432;46.924;7.114;2023-01-16T11:16:36;3.50;99.90
22532;DHT22;11432;46.924;7.114;2023-01-16T11:19:23;3.70;99.90
22532;DHT22;11432;46.924;7.114;2023-01-16T11:21:53;3.80;99.90
22532;DHT22;11432;46.924;7.114;2023-01-16T11:24:22;4.10;99.90
22532;DHT22;11432;46.924;7.114;2023-01-16T11:26:54;4.30;99.90
22532;DHT22;11432;46.924;7.114;2023-01-16T11:29:23;4.90;99.90
22532;DHT22;11432;46.924;7.114;2023-01-16T11:31:56;5.30;1.00
22532;DHT22;11432;46.924;7.114;2023-01-16T11:34:24;5.70;1.00
22532;DHT22;11432;46.924;7.114;2023-01-16T11:37:02;6.80;1.00
22532;DHT22;11432;46.924;7.114;2023-01-16T11:39:30;7.70;99.90
22532;DHT22;11432;46.924;7.114;2023-01-16T11:41:58;7.90;1.00
22532;DHT22;11432;46.924;7.114;2023-01-16T11:44:29;7.90;1.00
22532;DHT22;11432;46.924;7.114;2023-01-16T11:47:20;6.80;1.00
22532;DHT22;11432;46.924;7.114;2023-01-16T11:49:53;6.90;1.00
22532;DHT22;11432;46.924;7.114;2023-01-16T11:52:21;7.10;1.00
22532;DHT22;11432;46.924;7.114;2023-01-16T11:54:55;6.60;1.00
22532;DHT22;11432;46.924;7.114;2023-01-16T12:06:01;5.90;50.60
22532;DHT22;11432;46.924;7.114;2023-01-16T12:08:37;6.30;1.00
22532;DHT22;11432;46.924;7.114;2023-01-16T12:11:13;6.60;1.00
22532;DHT22;11432;46.924;7.114;2023-01-16T12:39:13;5.50;1.00
22532;DHT22;11432;46.924;7.114;2023-01-16T12:41:53;5.60;1.00
22532;DHT22;11432;46.924;7.114;2023-01-16T12:49:58;5.30;1.00
22532;DHT22;11432;46.924;7.114;2023-01-16T13:00:20;5.10;1.00
22532;DHT22;11432;46.924;7.114;2023-01-16T13:03:17;5.20;1.00
22532;DHT22;11432;46.924;7.114;2023-01-16T13:05:47;5.30;1.00
22532;DHT22;11432;46.924;7.114;2023-01-16T13:10:49;5.20;99.90
22532;DHT22;11432;46.924;7.114;2023-01-16T13:13:40;5.20;1.00
22532;DHT22;11432;46.924;7.114;2023-01-16T13:16:16;5.20;1.00
22532;DHT22;11432;46.924;7.114;2023-01-16T13:18:50;5.20;99.90
22532;DHT22;11432;46.924;7.114;2023-01-16T13:21:26;5.20;1.00
22532;DHT22;11432;46.924;7.114;2023-01-16T13:24:03;5.20;1.00
22532;DHT22;11432;46.924;7.114;2023-01-16T13:26:31;5.30;1.00
22532;DHT22;11432;46.924;7.114;2023-01-16T13:31:37;5.20;1.00
22532;DHT22;11432;46.924;7.114;2023-01-16T13:34:29;5.20;1.00
22532;DHT22;11432;46.924;7.114;2023-01-16T13:39:59;5.40;1.00
22532;DHT22;11432;46.924;7.114;2023-01-16T13:42:29;5.40;1.00
22532;DHT22;11432;46.924;7.114;2023-01-16T13:45:06;5.60;1.00
22532;DHT22;11432;46.924;7.114;2023-01-16T13:47:52;5.50;1.00
22532;DHT22;11432;46.924;7.114;2023-01-16T13:50:27;5.70;1.00
22532;DHT22;11432;46.924;7.114;2023-01-16T13:53:00;6.00;1.00
22532;DHT22;11432;46.924;7.114;2023-01-16T13:55:33;6.10;1.00
22532;DHT22;11432;46.924;7.114;2023-01-16T13:58:24;6.10;1.00
22532;DHT22;11432;46.924;7.114;2023-01-16T14:01:27;5.90;1.00
22532;DHT22;11432;46.924;7.114;2023-01-16T14:06:51;5.90;1.00
22532;DHT22;11432;46.924;7.114;2023-01-16T14:10:06;6.00;1.00
22532;DHT22;11432;46.924;7.114;2023-01-16T14:12:43;6.00;1.00
22532;DHT22;11432;46.924;7.114;2023-01-16T14:15:16;6.00;1.00
22532;DHT22;11432;46.924;7.114;2023-01-16T14:18:02;5.80;1.00
22532;DHT22;11432;46.924;7.114;2023-01-16T14:20:42;5.60;1.00
22532;DHT22;11432;46.924;7.114;2023-01-16T14:26:00;5.40;1.00
22532;DHT22;11432;46.924;7.114;2023-01-16T14:28:26;5.60;1.00
22532;DHT22;11432;46.924;7.114;2023-01-16T14:30:52;5.50;1.00
22532;DHT22;11432;46.924;7.114;2023-01-16T14:33:19;5.60;1.00
22532;DHT22;11432;46.924;7.114;2023-01-16T14:35:49;5.60;1.00
22532;DHT22;11432;46.924;7.114;2023-01-16T14:38:18;5.50;1.00
22532;DHT22;11432;46.924;7.114;2023-01-16T14:40:55;5.50;1.00
22532;DHT22;11432;46.924;7.114;2023-01-16T14:47:34;5.50;1.00
22532;DHT22;11432;46.924;7.114;2023-01-16T14:50:10;5.40;1.00
22532;DHT22;11432;46.924;7.114;2023-01-16T14:53:16;5.40;1.00
22532;DHT22;11432;46.924;7.114;2023-01-16T14:56:07;5.50;1.00
22532;DHT22;11432;46.924;7.114;2023-01-16T14:58:43;5.50;1.00
22532;DHT22;11432;46.924;7.114;2023-01-16T15:01:27;5.50;1.00
22532;DHT22;11432;46.924;7.114;2023-01-16T15:04:14;5.50;1.00
22532;DHT22;11432;46.924;7.114;2023-01-16T15:06:44;5.50;1.00
22532;DHT22;11432;46.924;7.114;2023-01-16T15:09:21;5.50;1.00
22532;DHT22;11432;46.924;7.114;2023-01-16T15:12:13;5.50;1.00
22532;DHT22;11432;46.924;7.114;2023-01-16T15:14:54;5.50;1.00
22532;DHT22;11432;46.924;7.114;2023-01-16T15:17:34;5.50;1.00
22532;DHT22;11432;46.924;7.114;2023-01-16T15:20:25;5.40;1.00
22532;DHT22;11432;46.924;7.114;2023-01-16T15:31:24;5.40;1.00
22532;DHT22;11432;46.924;7.114;2023-01-16T15:36:39;5.50;1.00
22532;DHT22;11432;46.924;7.114;2023-01-16T15:39:12;5.40;1.00
22532;DHT22;11432;46.924;7.114;2023-01-16T15:41:48;5.40;1.00
22532;DHT22;11432;46.924;7.114;2023-01-16T15:44:39;5.50;1.00
22532;DHT22;11432;46.924;7.114;2023-01-16T15:50:15;5.50;1.00
22532;DHT22;11432;46.924;7.114;2023-01-16T15:52:42;5.60;1.00
22532;DHT22;11432;46.924;7.114;2023-01-16T15:55:29;5.60;1.00
22532;DHT22;11432;46.924;7.114;2023-01-16T15:57:57;5.60;1.00
22532;DHT22;11432;46.924;7.114;2023-01-16T16:00:25;5.50;1.00
22532;DHT22;11432;46.924;7.114;2023-01-16T16:05:28;5.60;1.00
22532;DHT22;11432;46.924;7.114;2023-01-16T16:07:55;5.60;1.00
22532;DHT22;11432;46.924;7.114;2023-01-16T16:10:21;5.60;1.00
22532;DHT22;11432;46.924;7.114;2023-01-16T16:13:06;5.60;1.00
22532;DHT22;11432;46.924;7.114;2023-01-16T16:15:32;5.60;1.00
22532;DHT22;11432;46.924;7.114;2023-01-16T16:18:20;5.60;1.00
22532;DHT22;11432;46.924;7.114;2023-01-16T16:20:47;5.60;1.00
22532;DHT22;11432;46.924;7.114;2023-01-16T16:23:20;5.60;1.00
22532;DHT22;11432;46.924;7.114;2023-01-16T16:26:01;5.60;1.00
22532;DHT22;11432;46.924;7.114;2023-01-16T16:31:14;5.60;1.00
22532;DHT22;11432;46.924;7.114;2023-01-16T16:33:52;5.60;1.00
22532;DHT22;11432;46.924;7.114;2023-01-16T16:36:18;5.60;1.00
22532;DHT22;11432;46.924;7.114;2023-01-16T16:38:52;5.60;1.00
22532;DHT22;11432;46.924;7.114;2023-01-16T16:44:32;5.60;1.00
22532;DHT22;11432;46.924;7.114;2023-01-16T16:46:58;5.50;1.00
22532;DHT22;11432;46.924;7.114;2023-01-16T16:51:50;5.60;1.00
22532;DHT22;11432;46.924;7.114;2023-01-16T16:54:17;5.60;1.00
22532;DHT22;11432;46.924;7.114;2023-01-16T16:56:53;5.60;1.00
22532;DHT22;11432;46.924;7.114;2023-01-16T16:59:25;5.60;1.00
22532;DHT22;11432;46.924;7.114;2023-01-16T17:01:54;5.60;1.00
22532;DHT22;11432;46.924;7.114;2023-01-16T17:04:21;5.70;1.00
22532;DHT22;11432;46.924;7.114;2023-01-16T17:06:47;5.70;1.00
22532;DHT22;11432;46.924;7.114;2023-01-16T17:09:15;5.60;1.00
22532;DHT22;11432;46.924;7.114;2023-01-16T17:11:43;5.60;1.00
22532;DHT22;11432;46.924;7.114;2023-01-16T17:14:09;5.60;1.00
22532;DHT22;11432;46.924;7.114;2023-01-16T17:16:35;5.60;1.00
22532;DHT22;11432;46.924;7.114;2023-01-16T17:21:40;5.40;1.00
22532;DHT22;11432;46.924;7.114;2023-01-16T17:24:10;5.40;1.00
22532;DHT22;11432;46.924;7.114;2023-01-16T17:26:38;5.40;1.00
22532;DHT22;11432;46.924;7.114;2023-01-16T17:29:06;5.30;1.00
22532;DHT22;11432;46.924;7.114;2023-01-16T17:31:33;5.30;1.00
22532;DHT22;11432;46.924;7.114;2023-01-16T17:34:00;5.30;1.00
22532;DHT22;11432;46.924;7.114;2023-01-16T17:36:25;5.30;1.00
22532;DHT22;11432;46.924;7.114;2023-01-16T17:38:53;5.30;1.00
22532;DHT22;11432;46.924;7.114;2023-01-16T17:41:21;5.30;1.00
22532;DHT22;11432;46.924;7.114;2023-01-16T17:44:24;5.40;1.00
22532;DHT22;11432;46.924;7.114;2023-01-16T17:47:09;5.40;1.00
22532;DHT22;11432;46.924;7.114;2023-01-16T17:49:35;5.30;1.00
22532;DHT22;11432;46.924;7.114;2023-01-16T17:52:21;5.30;1.00
22532;DHT22;11432;46.924;7.114;2023-01-16T17:54:46;5.30;1.00
22532;DHT22;11432;46.924;7.114;2023-01-16T17:57:31;5.20;1.00
22532;DHT22;11432;46.924;7.114;2023-01-16T17:59:57;5.00;1.00
22532;DHT22;11432;46.924;7.114;2023-01-16T18:02:23;4.80;99.90
22532;DHT22;11432;46.924;7.114;2023-01-16T18:04:48;4.60;1.00
22532;DHT22;11432;46.924;7.114;2023-01-16T18:07:15;4.40;1.00
22532;DHT22;11432;46.924;7.114;2023-01-16T18:09:41;4.20;1.00
22532;DHT22;11432;46.924;7.114;2023-01-16T18:12:09;4.10;1.00
22532;DHT22;11432;46.924;7.114;2023-01-16T18:14:53;4.10;1.00
22532;DHT22;11432;46.924;7.114;2023-01-16T18:17:37;3.90;1.00
22532;DHT22;11432;46.924;7.114;2023-01-16T18:20:04;3.90;1.00
22532;DHT22;11432;46.924;7.114;2023-01-16T18:22:32;3.80;1.00
22532;DHT22;11432;46.924;7.114;2023-01-16T18:25:00;3.80;1.00
22532;DHT22;11432;46.924;7.114;2023-01-16T18:27:26;3.80;1.00
22532;DHT22;11432;46.924;7.114;2023-01-16T18:29:52;3.80;1.00
22532;DHT22;11432;46.924;7.114;2023-01-16T18:32:18;3.70;1.00
22532;DHT22;11432;46.924;7.114;2023-01-16T18:35:05;3.70;1.00
22532;DHT22;11432;46.924;7.114;2023-01-16T18:37:39;3.60;1.00
22532;DHT22;11432;46.924;7.114;2023-01-16T18:40:10;3.60;1.00
22532;DHT22;11432;46.924;7.114;2023-01-16T18:42:54;3.70;1.00
22532;DHT22;11432;46.924;7.114;2023-01-16T18:45:38;3.80;1.00
22532;DHT22;11432;46.924;7.114;2023-01-16T18:48:22;3.80;1.00
22532;DHT22;11432;46.924;7.114;2023-01-16T18:51:10;3.80;1.00
22532;DHT22;11432;46.924;7.114;2023-01-16T18:53:56;3.80;1.00
22532;DHT22;11432;46.924;7.114;2023-01-16T18:56:43;3.90;1.00